sensor_id;sensor_type;location;lat;lon;timestamp;pressure;altitude;pressure_sealevel;temperature;humidity
7058;BME280;3570;43.080;25.628;2023-07-31T00:02:26;-20107.44;;;22.54;100.00
7058;BME280;3570;43.080;25.628;2023-07-31T00:05:10;-20107.84;;;22.55;100.00
7058;BME280;3570;43.080;25.628;2023-07-31T00:07:54;-20106.69;;;22.51;100.00
7058;BME280;3570;43.080;25.628;2023-07-31T00:10:38;-20107.44;;;22.54;100.00
7058;BME280;3570;43.080;25.628;2023-07-31T00:13:22;-20111.34;;;22.67;100.00
7058;BME280;3570;43.080;25.628;2023-07-31T00:16:07;-20113.38;;;22.74;100.00
7058;BME280;3570;43.080;25.628;2023-07-31T00:18:50;-20112.19;;;22.70;100.00
7058;BME280;3570;43.080;25.628;2023-07-31T00:21:34;-20105.25;;;22.46;100.00
7058;BME280;3570;43.080;25.628;2023-07-31T00:24:19;-20108.88;;;22.59;100.00
7058;BME280;3570;43.080;25.628;2023-07-31T00:27:03;-20111.03;;;22.66;100.00
7058;BME280;3570;43.080;25.628;2023-07-31T00:29:47;-20112.06;;;22.70;100.00
7058;BME280;3570;43.080;25.628;2023-07-31T00:32:31;-20113.22;;;22.74;100.00
7058;BME280;3570;43.080;25.628;2023-07-31T00:35:15;-20113.94;;;22.76;100.00
7058;BME280;3570;43.080;25.628;2023-07-31T00:37:59;-20119.44;;;22.95;100.00
7058;BME280;3570;43.080;25.628;2023-07-31T00:40:43;-20113.94;;;22.76;100.00
7058;BME280;3570;43.080;25.628;2023-07-31T00:43:27;-20110.75;;;22.65;100.00
7058;BME280;3570;43.080;25.628;2023-07-31T00:46:11;-20103.22;;;22.39;100.00
7058;BME280;3570;43.080;25.628;2023-07-31T00:48:56;-20098.03;;;22.21;100.00
7058;BME280;3570;43.080;25.628;2023-07-31T00:51:40;-20104.38;;;22.43;100.00
7058;BME280;3570;43.080;25.628;2023-07-31T00:54:25;-20102.06;;;22.35;100.00
7058;BME280;3570;43.080;25.628;2023-07-31T00:57:09;-20098.88;;;22.24;100.00
7058;BME280;3570;43.080;25.628;2023-07-31T00:59:54;-20119.88;;;22.97;100.00
7058;BME280;3570;43.080;25.628;2023-07-31T01:02:38;-20133.47;;;23.44;100.00
7058;BME280;3570;43.080;25.628;2023-07-31T01:11:40;-20157.44;;;24.27;100.00
7058;BME280;3570;43.080;25.628;2023-07-31T01:14:26;-20159.19;;;24.34;100.00
7058;BME280;3570;43.080;25.628;2023-07-31T01:17:10;-20162.94;;;24.47;100.00
7058;BME280;3570;43.080;25.628;2023-07-31T01:19:57;-20164.22;;;24.51;100.00
7058;BME280;3570;43.080;25.628;2023-07-31T01:26:16;-20171.44;;;24.76;100.00
7058;BME280;3570;43.080;25.628;2023-07-31T01:29:08;-20169.44;;;24.69;100.00
7058;BME280;3570;43.080;25.628;2023-07-31T01:31:55;-20167.53;;;24.63;100.00
7058;BME280;3570;43.080;25.628;2023-07-31T01:34:41;-20148.63;;;23.97;100.00
7058;BME280;3570;43.080;25.628;2023-07-31T01:37:29;-20140.53;;;23.69;100.00
7058;BME280;3570;43.080;25.628;2023-07-31T01:40:14;-20134.75;;;23.49;100.00
7058;BME280;3570;43.080;25.628;2023-07-31T01:42:57;-20128.41;;;23.26;100.00
7058;BME280;3570;43.080;25.628;2023-07-31T01:45:42;-20127.38;;;23.23;100.00
7058;BME280;3570;43.080;25.628;2023-07-31T01:48:26;-20123.34;;;23.09;100.00
7058;BME280;3570;43.080;25.628;2023-07-31T01:51:09;-20119.00;;;22.94;100.00
7058;BME280;3570;43.080;25.628;2023-07-31T01:53:53;-20114.81;;;22.79;100.00
7058;BME280;3570;43.080;25.628;2023-07-31T01:56:37;-20115.81;;;22.83;100.00
7058;BME280;3570;43.080;25.628;2023-07-31T01:59:21;-20107.56;;;22.54;100.00
7058;BME280;3570;43.080;25.628;2023-07-31T02:02:05;-20110.63;;;22.65;100.00
7058;BME280;3570;43.080;25.628;2023-07-31T02:04:49;-20103.09;;;22.38;100.00
7058;BME280;3570;43.080;25.628;2023-07-31T02:07:33;-20102.38;;;22.36;100.00
7058;BME280;3570;43.080;25.628;2023-07-31T02:10:17;-20110.63;;;22.65;100.00
7058;BME280;3570;43.080;25.628;2023-07-31T02:13:01;-20111.19;;;22.67;100.00
7058;BME280;3570;43.080;25.628;2023-07-31T02:15:47;-20095.28;;;22.11;100.00
7058;BME280;3570;43.080;25.628;2023-07-31T02:18:31;-20100.78;;;22.30;100.00
7058;BME280;3570;43.080;25.628;2023-07-31T02:21:15;-20103.22;;;22.39;100.00
7058;BME280;3570;43.080;25.628;2023-07-31T02:23:59;-20119.00;;;22.94;100.00
7058;BME280;3570;43.080;25.628;2023-07-31T02:26:43;-20129.25;;;23.29;100.00
7058;BME280;3570;43.080;25.628;2023-07-31T02:29:27;-20131.44;;;23.37;100.00
7058;BME280;3570;43.080;25.628;2023-07-31T02:32:11;-20139.53;;;23.65;100.00
7058;BME280;3570;43.080;25.628;2023-07-31T02:34:55;-20146.75;;;23.90;100.00
7058;BME280;3570;43.080;25.628;2023-07-31T02:37:39;-20156.28;;;24.23;100.00
7058;BME280;3570;43.080;25.628;2023-07-31T02:40:23;-20146.91;;;23.91;100.00
7058;BME280;3570;43.080;25.628;2023-07-31T02:43:08;-20133.31;;;23.44;100.00
7058;BME280;3570;43.080;25.628;2023-07-31T02:45:52;-20117.97;;;22.90;100.00
7058;BME280;3570;43.080;25.628;2023-07-31T02:48:36;-20116.81;;;22.86;100.00
7058;BME280;3570;43.080;25.628;2023-07-31T02:51:20;-20114.66;;;22.79;100.00
7058;BME280;3570;43.080;25.628;2023-07-31T02:54:05;-20115.09;;;22.80;100.00
7058;BME280;3570;43.080;25.628;2023-07-31T02:56:49;-20112.19;;;22.70;100.00
7058;BME280;3570;43.080;25.628;2023-07-31T02:59:33;-20115.38;;;22.81;100.00
7058;BME280;3570;43.080;25.628;2023-07-31T03:02:17;-20100.78;;;22.30;100.00
7058;BME280;3570;43.080;25.628;2023-07-31T03:05:01;-20113.66;;;22.75;100.00
7058;BME280;3570;43.080;25.628;2023-07-31T03:07:44;-20120.88;;;23.00;100.00
7058;BME280;3570;43.080;25.628;2023-07-31T03:10:28;-20125.50;;;23.16;100.00
7058;BME280;3570;43.080;25.628;2023-07-31T03:13:12;-20130.13;;;23.32;100.00
7058;BME280;3570;43.080;25.628;2023-07-31T03:15:56;-20136.50;;;23.55;100.00
7058;BME280;3570;43.080;25.628;2023-07-31T03:18:40;-20137.06;;;23.57;100.00
7058;BME280;3570;43.080;25.628;2023-07-31T03:21:24;-20141.56;;;23.72;100.00
7058;BME280;3570;43.080;25.628;2023-07-31T03:24:08;-20145.31;;;23.85;100.00
7058;BME280;3570;43.080;25.628;2023-07-31T03:26:52;-20146.47;;;23.89;100.00
7058;BME280;3570;43.080;25.628;2023-07-31T03:29:36;-20151.53;;;24.07;100.00
7058;BME280;3570;43.080;25.628;2023-07-31T03:32:20;-20146.91;;;23.91;100.00
7058;BME280;3570;43.080;25.628;2023-07-31T03:35:04;-20150.94;;;24.05;100.00
7058;BME280;3570;43.080;25.628;2023-07-31T03:37:49;-20148.19;;;23.95;100.00
7058;BME280;3570;43.080;25.628;2023-07-31T03:40:33;-20139.53;;;23.65;100.00
7058;BME280;3570;43.080;25.628;2023-07-31T03:43:17;-20131.88;;;23.39;100.00
7058;BME280;3570;43.080;25.628;2023-07-31T03:46:01;-20141.69;;;23.73;100.00
7058;BME280;3570;43.080;25.628;2023-07-31T03:48:46;-20141.69;;;23.73;100.00
7058;BME280;3570;43.080;25.628;2023-07-31T03:51:29;-20148.63;;;23.97;100.00
7058;BME280;3570;43.080;25.628;2023-07-31T03:54:13;-20142.28;;;23.75;100.00
7058;BME280;3570;43.080;25.628;2023-07-31T03:56:58;-20147.47;;;23.93;100.00
7058;BME280;3570;43.080;25.628;2023-07-31T03:59:42;-20147.47;;;23.93;100.00
7058;BME280;3570;43.080;25.628;2023-07-31T04:02:26;-20151.81;;;24.08;100.00
7058;BME280;3570;43.080;25.628;2023-07-31T04:05:10;-20150.38;;;24.03;100.00
7058;BME280;3570;43.080;25.628;2023-07-31T04:07:55;-20144.59;;;23.83;100.00
7058;BME280;3570;43.080;25.628;2023-07-31T04:10:39;-20152.69;;;24.11;100.00
7058;BME280;3570;43.080;25.628;2023-07-31T04:13:23;-20153.41;;;24.13;100.00
7058;BME280;3570;43.080;25.628;2023-07-31T04:16:07;-20155.72;;;24.21;100.00
7058;BME280;3570;43.080;25.628;2023-07-31T04:18:51;-20159.59;;;24.35;100.00
7058;BME280;3570;43.080;25.628;2023-07-31T04:21:35;-20165.81;;;24.57;100.00
7058;BME280;3570;43.080;25.628;2023-07-31T04:24:19;-20165.97;;;24.57;100.00
7058;BME280;3570;43.080;25.628;2023-07-31T04:27:08;-20173.19;;;24.82;100.00
7058;BME280;3570;43.080;25.628;2023-07-31T04:29:52;-20170.16;;;24.72;100.00
7058;BME280;3570;43.080;25.628;2023-07-31T04:32:36;-20165.53;;;24.56;100.00
7058;BME280;3570;43.080;25.628;2023-07-31T04:35:20;-20175.78;;;24.91;100.00
7058;BME280;3570;43.080;25.628;2023-07-31T04:38:04;-20154.97;;;24.19;100.00
7058;BME280;3570;43.080;25.628;2023-07-31T04:40:48;-20122.63;;;23.06;100.00
7058;BME280;3570;43.080;25.628;2023-07-31T04:43:32;-20129.41;;;23.30;100.00
7058;BME280;3570;43.080;25.628;2023-07-31T04:46:16;-20128.97;;;23.28;100.00
7058;BME280;3570;43.080;25.628;2023-07-31T04:49:00;-20128.97;;;23.28;100.00
7058;BME280;3570;43.080;25.628;2023-07-31T04:51:44;-20130.72;;;23.34;100.00
7058;BME280;3570;43.080;25.628;2023-07-31T04:54:28;-20140.09;;;23.67;100.00
7058;BME280;3570;43.080;25.628;2023-07-31T04:57:12;-20146.59;;;23.90;100.00
7058;BME280;3570;43.080;25.628;2023-07-31T04:59:56;-20154.25;;;24.16;100.00
7058;BME280;3570;43.080;25.628;2023-07-31T05:02:40;-20137.38;;;23.58;100.00
7058;BME280;3570;43.080;25.628;2023-07-31T05:05:24;-20125.66;;;23.17;100.00
7058;BME280;3570;43.080;25.628;2023-07-31T05:08:08;-20128.25;;;23.26;100.00
7058;BME280;3570;43.080;25.628;2023-07-31T05:10:51;-20141.25;;;23.71;100.00
7058;BME280;3570;43.080;25.628;2023-07-31T05:13:36;-20150.06;;;24.02;100.00
7058;BME280;3570;43.080;25.628;2023-07-31T05:16:19;-20154.69;;;24.18;100.00
7058;BME280;3570;43.080;25.628;2023-07-31T05:19:03;-20160.31;;;24.38;100.00
7058;BME280;3570;43.080;25.628;2023-07-31T05:21:47;-20149.63;;;24.00;100.00
7058;BME280;3570;43.080;25.628;2023-07-31T05:24:31;-20141.13;;;23.71;100.00
7058;BME280;3570;43.080;25.628;2023-07-31T05:27:15;-20134.03;;;23.46;100.00
7058;BME280;3570;43.080;25.628;2023-07-31T05:30:02;-20126.22;;;23.19;100.00
7058;BME280;3570;43.080;25.628;2023-07-31T05:32:47;-20126.94;;;23.21;100.00
7058;BME280;3570;43.080;25.628;2023-07-31T05:35:31;-20118.56;;;22.92;100.00
7058;BME280;3570;43.080;25.628;2023-07-31T05:38:15;-20112.50;;;22.71;100.00
7058;BME280;3570;43.080;25.628;2023-07-31T05:40:59;-20113.94;;;22.76;100.00
7058;BME280;3570;43.080;25.628;2023-07-31T05:43:43;-20116.81;;;22.86;100.00
7058;BME280;3570;43.080;25.628;2023-07-31T05:46:27;-20118.56;;;22.92;100.00
7058;BME280;3570;43.080;25.628;2023-07-31T05:49:11;-20113.94;;;22.76;100.00
7058;BME280;3570;43.080;25.628;2023-07-31T05:51:55;-20117.97;;;22.90;100.00
7058;BME280;3570;43.080;25.628;2023-07-31T05:54:39;-20122.31;;;23.05;100.00
7058;BME280;3570;43.080;25.628;2023-07-31T05:57:23;-20124.34;;;23.12;100.00
7058;BME280;3570;43.080;25.628;2023-07-31T06:00:07;-20136.50;;;23.55;100.00
7058;BME280;3570;43.080;25.628;2023-07-31T06:02:52;-20135.47;;;23.51;100.00
7058;BME280;3570;43.080;25.628;2023-07-31T06:05:36;-20115.97;;;22.83;100.00
7058;BME280;3570;43.080;25.628;2023-07-31T06:08:20;-20128.69;;;23.27;100.00
7058;BME280;3570;43.080;25.628;2023-07-31T06:11:04;-20122.03;;;23.04;100.00
7058;BME280;3570;43.080;25.628;2023-07-31T06:13:48;-20121.75;;;23.03;100.00
7058;BME280;3570;43.080;25.628;2023-07-31T06:16:33;-20118.13;;;22.91;100.00
7058;BME280;3570;43.080;25.628;2023-07-31T06:19:17;-20111.91;;;22.69;100.00
7058;BME280;3570;43.080;25.628;2023-07-31T06:22:01;-20112.50;;;22.71;100.00
7058;BME280;3570;43.080;25.628;2023-07-31T06:24:45;-20116.25;;;22.84;100.00
7058;BME280;3570;43.080;25.628;2023-07-31T06:27:28;-20118.28;;;22.91;100.00
7058;BME280;3570;43.080;25.628;2023-07-31T06:30:12;-20118.56;;;22.92;100.00
7058;BME280;3570;43.080;25.628;2023-07-31T06:32:56;-20119.16;;;22.94;100.00
7058;BME280;3570;43.080;25.628;2023-07-31T06:35:40;-20121.31;;;23.02;100.00
7058;BME280;3570;43.080;25.628;2023-07-31T06:38:26;-20114.09;;;22.77;100.00
7058;BME280;3570;43.080;25.628;2023-07-31T06:41:10;-20126.66;;;23.20;100.00
7058;BME280;3570;43.080;25.628;2023-07-31T06:43:54;-20127.97;;;23.25;100.00
7058;BME280;3570;43.080;25.628;2023-07-31T06:46:38;-20128.09;;;23.25;100.00
7058;BME280;3570;43.080;25.628;2023-07-31T07:01:28;-20119.56;;;22.96;100.00
7058;BME280;3570;43.080;25.628;2023-07-31T07:04:13;-20119.16;;;22.94;100.00
7058;BME280;3570;43.080;25.628;2023-07-31T07:06:57;-20121.47;;;23.02;100.00
7058;BME280;3570;43.080;25.628;2023-07-31T07:09:41;-20125.50;;;23.16;100.00
7058;BME280;3570;43.080;25.628;2023-07-31T07:12:29;-20117.84;;;22.90;100.00
7058;BME280;3570;43.080;25.628;2023-07-31T07:15:13;-20121.75;;;23.03;100.00
7058;BME280;3570;43.080;25.628;2023-07-31T07:17:57;-20117.41;;;22.88;100.00
7058;BME280;3570;43.080;25.628;2023-07-31T07:20:49;-20120.59;;;22.99;100.00
7058;BME280;3570;43.080;25.628;2023-07-31T07:23:34;-20128.09;;;23.25;100.00
7058;BME280;3570;43.080;25.628;2023-07-31T07:26:18;-20133.59;;;23.45;100.00
7058;BME280;3570;43.080;25.628;2023-07-31T07:29:02;-20132.31;;;23.40;100.00
7058;BME280;3570;43.080;25.628;2023-07-31T07:31:46;-20135.03;;;23.50;100.00
7058;BME280;3570;43.080;25.628;2023-07-31T07:34:30;-20133.31;;;23.44;100.00
7058;BME280;3570;43.080;25.628;2023-07-31T07:37:14;-20139.25;;;23.64;100.00
7058;BME280;3570;43.080;25.628;2023-07-31T07:39:58;-20147.47;;;23.93;100.00
7058;BME280;3570;43.080;25.628;2023-07-31T07:42:42;-20151.81;;;24.08;100.00
7058;BME280;3570;43.080;25.628;2023-07-31T07:45:26;-20149.63;;;24.00;100.00
7058;BME280;3570;43.080;25.628;2023-07-31T07:48:10;-20159.91;;;24.36;100.00
7058;BME280;3570;43.080;25.628;2023-07-31T07:50:54;-20167.97;;;24.64;100.00
7058;BME280;3570;43.080;25.628;2023-07-31T07:53:37;-20174.03;;;24.85;100.00
7058;BME280;3570;43.080;25.628;2023-07-31T07:56:22;-20190.50;;;25.43;100.00
7058;BME280;3570;43.080;25.628;2023-07-31T07:59:06;-20196.41;;;25.63;100.00
7058;BME280;3570;43.080;25.628;2023-07-31T08:01:50;-20207.81;;;26.03;100.00
7058;BME280;3570;43.080;25.628;2023-07-31T08:04:34;-20211.25;;;26.15;100.00
7058;BME280;3570;43.080;25.628;2023-07-31T08:07:18;-20207.50;;;26.02;100.00
7058;BME280;3570;43.080;25.628;2023-07-31T08:10:02;-20183.84;;;25.19;100.00
7058;BME280;3570;43.080;25.628;2023-07-31T08:12:46;-20184.16;;;25.21;100.00
7058;BME280;3570;43.080;25.628;2023-07-31T08:15:30;-20190.50;;;25.43;100.00
7058;BME280;3570;43.080;25.628;2023-07-31T08:18:14;-20190.06;;;25.41;100.00
7058;BME280;3570;43.080;25.628;2023-07-31T08:20:59;-20198.56;;;25.71;100.00
7058;BME280;3570;43.080;25.628;2023-07-31T08:23:44;-20193.09;;;25.52;100.00
7058;BME280;3570;43.080;25.628;2023-07-31T08:26:28;-20194.25;;;25.56;100.00
7058;BME280;3570;43.080;25.628;2023-07-31T08:29:12;-20196.13;;;25.62;100.00
7058;BME280;3570;43.080;25.628;2023-07-31T08:31:56;-20201.16;;;25.80;100.00
7058;BME280;3570;43.080;25.628;2023-07-31T08:34:40;-20204.34;;;25.91;100.00
7058;BME280;3570;43.080;25.628;2023-07-31T08:37:25;-20202.03;;;25.83;100.00
7058;BME280;3570;43.080;25.628;2023-07-31T08:40:10;-20189.63;;;25.40;100.00
7058;BME280;3570;43.080;25.628;2023-07-31T08:42:55;-20200.88;;;25.79;100.00
7058;BME280;3570;43.080;25.628;2023-07-31T08:45:42;-20232.00;;;26.87;97.31
7058;BME280;3570;43.080;25.628;2023-07-31T08:48:28;-20240.22;;;27.16;95.18
7058;BME280;3570;43.080;25.628;2023-07-31T08:51:14;-20255.78;;;27.70;91.11
7058;BME280;3570;43.080;25.628;2023-07-31T08:53:58;-20243.25;;;27.27;91.52
7058;BME280;3570;43.080;25.628;2023-07-31T08:56:43;-20253.03;;;27.61;91.94
7058;BME280;3570;43.080;25.628;2023-07-31T08:59:31;-20248.88;;;27.46;93.16
7058;BME280;3570;43.080;25.628;2023-07-31T09:02:16;-20269.88;;;28.20;88.94
7058;BME280;3570;43.080;25.628;2023-07-31T09:05:03;-20270.16;;;28.21;87.97
7058;BME280;3570;43.080;25.628;2023-07-31T09:07:51;-20274.91;;;28.37;87.35
7058;BME280;3570;43.080;25.628;2023-07-31T09:10:35;-20273.47;;;28.32;87.59
7058;BME280;3570;43.080;25.628;2023-07-31T09:13:19;-20273.19;;;28.31;86.98
7058;BME280;3570;43.080;25.628;2023-07-31T09:16:03;-20282.25;;;28.63;84.47
7058;BME280;3570;43.080;25.628;2023-07-31T09:18:56;-20299.34;;;29.23;81.30
7058;BME280;3570;43.080;25.628;2023-07-31T09:21:49;-20297.91;;;29.18;80.40
7058;BME280;3570;43.080;25.628;2023-07-31T09:24:34;-20292.75;;;29.00;80.86
7058;BME280;3570;43.080;25.628;2023-07-31T09:27:18;-20294.75;;;29.07;81.43
7058;BME280;3570;43.080;25.628;2023-07-31T09:30:02;-20289.00;;;28.87;81.35
7058;BME280;3570;43.080;25.628;2023-07-31T09:32:48;-20281.53;;;28.60;82.19
7058;BME280;3570;43.080;25.628;2023-07-31T09:35:34;-20304.38;;;29.40;76.13
7058;BME280;3570;43.080;25.628;2023-07-31T09:38:18;-20328.06;;;30.23;68.02
7058;BME280;3570;43.080;25.628;2023-07-31T09:41:02;-20301.38;;;29.30;72.21
7058;BME280;3570;43.080;25.628;2023-07-31T09:43:53;-20296.47;;;29.13;74.54
7058;BME280;3570;43.080;25.628;2023-07-31T09:46:38;-20319.31;;;29.93;68.94
7058;BME280;3570;43.080;25.628;2023-07-31T09:49:25;-20328.06;;;30.23;67.26
7058;BME280;3570;43.080;25.628;2023-07-31T09:52:12;-20367.09;;;31.60;61.23
7058;BME280;3570;43.080;25.628;2023-07-31T09:54:57;-20384.44;;;32.21;59.46
7058;BME280;3570;43.080;25.628;2023-07-31T09:57:48;-20425.38;;;33.65;53.35
7058;BME280;3570;43.080;25.628;2023-07-31T10:00:32;-20399.03;;;32.72;52.80
7058;BME280;3570;43.080;25.628;2023-07-31T10:03:17;-20331.38;;;30.35;60.72
7058;BME280;3570;43.080;25.628;2023-07-31T10:06:02;-20319.31;;;29.93;64.10
7058;BME280;3570;43.080;25.628;2023-07-31T10:08:47;-20284.13;;;28.69;70.21
7058;BME280;3570;43.080;25.628;2023-07-31T10:11:56;-20262.09;;;27.92;75.08
7058;BME280;3570;43.080;25.628;2023-07-31T10:14:43;-20262.69;;;27.95;76.73
7058;BME280;3570;43.080;25.628;2023-07-31T10:17:29;-20277.06;;;28.45;73.90
7058;BME280;3570;43.080;25.628;2023-07-31T10:20:14;-20298.34;;;29.19;68.25
7058;BME280;3570;43.080;25.628;2023-07-31T10:23:01;-20286.72;;;28.78;70.30
7058;BME280;3570;43.080;25.628;2023-07-31T10:25:45;-20283.53;;;28.67;72.50
7058;BME280;3570;43.080;25.628;2023-07-31T10:28:32;-20298.78;;;29.21;69.96
7058;BME280;3570;43.080;25.628;2023-07-31T10:31:17;-20331.81;;;30.36;67.37
7058;BME280;3570;43.080;25.628;2023-07-31T10:34:03;-20363.94;;;31.49;59.07
7058;BME280;3570;43.080;25.628;2023-07-31T10:36:47;-20415.50;;;33.30;50.98
7058;BME280;3570;43.080;25.628;2023-07-31T10:39:37;-20425.38;;;33.65;48.33
7058;BME280;3570;43.080;25.628;2023-07-31T10:42:31;-20410.34;;;33.12;51.21
7058;BME280;3570;43.080;25.628;2023-07-31T10:45:36;-20424.94;;;33.63;49.46
7058;BME280;3570;43.080;25.628;2023-07-31T10:48:20;-20365.38;;;31.54;56.77
7058;BME280;3570;43.080;25.628;2023-07-31T10:51:09;-20333.09;;;30.41;62.73
7058;BME280;3570;43.080;25.628;2023-07-31T10:54:10;-20313.44;;;29.72;66.63
7058;BME280;3570;43.080;25.628;2023-07-31T10:56:54;-20313.28;;;29.72;66.86
7058;BME280;3570;43.080;25.628;2023-07-31T10:59:40;-20301.06;;;29.29;67.38
7058;BME280;3570;43.080;25.628;2023-07-31T11:02:27;-20300.66;;;29.27;67.23
7058;BME280;3570;43.080;25.628;2023-07-31T11:05:13;-20287.56;;;28.82;69.46
7058;BME280;3570;43.080;25.628;2023-07-31T11:07:57;-20271.03;;;28.24;74.62
7058;BME280;3570;43.080;25.628;2023-07-31T11:10:43;-20277.94;;;28.48;72.87
7058;BME280;3570;43.080;25.628;2023-07-31T11:13:31;-20310.28;;;29.61;69.14
7058;BME280;3570;43.080;25.628;2023-07-31T11:16:16;-20280.22;;;28.56;71.42
7058;BME280;3570;43.080;25.628;2023-07-31T11:19:00;-20276.94;;;28.44;72.49
7058;BME280;3570;43.080;25.628;2023-07-31T11:21:44;-20278.50;;;28.50;73.36
7058;BME280;3570;43.080;25.628;2023-07-31T11:24:28;-20285.56;;;28.74;71.12
7058;BME280;3570;43.080;25.628;2023-07-31T11:27:13;-20287.84;;;28.83;69.59
7058;BME280;3570;43.080;25.628;2023-07-31T11:30:01;-20276.63;;;28.43;70.95
7058;BME280;3570;43.080;25.628;2023-07-31T11:32:45;-20296.63;;;29.13;69.40
7058;BME280;3570;43.080;25.628;2023-07-31T11:35:35;-20315.72;;;29.80;63.66
7058;BME280;3570;43.080;25.628;2023-07-31T11:38:26;-20295.03;;;29.08;66.36
7058;BME280;3570;43.080;25.628;2023-07-31T11:41:14;-20293.47;;;29.02;64.93
7058;BME280;3570;43.080;25.628;2023-07-31T11:44:01;-20316.03;;;29.81;62.85
7058;BME280;3570;43.080;25.628;2023-07-31T11:46:47;-20332.25;;;30.38;60.90
7058;BME280;3570;43.080;25.628;2023-07-31T11:49:31;-20323.34;;;30.07;62.31
7058;BME280;3570;43.080;25.628;2023-07-31T11:52:16;-20372.53;;;31.79;55.51
7058;BME280;3570;43.080;25.628;2023-07-31T11:55:04;-20364.09;;;31.49;53.04
7058;BME280;3570;43.080;25.628;2023-07-31T11:57:51;-20376.28;;;31.92;53.11
7058;BME280;3570;43.080;25.628;2023-07-31T12:00:37;-20378.72;;;32.01;52.24
7058;BME280;3570;43.080;25.628;2023-07-31T12:03:20;-20404.34;;;32.91;48.78
7058;BME280;3570;43.080;25.628;2023-07-31T12:06:05;-20415.34;;;33.29;47.03
7058;BME280;3570;43.080;25.628;2023-07-31T12:08:49;-20366.53;;;31.58;50.27
7058;BME280;3570;43.080;25.628;2023-07-31T12:11:46;-20331.25;;;30.34;56.54
7058;BME280;3570;43.080;25.628;2023-07-31T12:14:31;-20350.75;;;31.03;54.09
7058;BME280;3570;43.080;25.628;2023-07-31T12:17:17;-20369.41;;;31.68;51.86
7058;BME280;3570;43.080;25.628;2023-07-31T12:20:04;-20399.47;;;32.74;49.56
7058;BME280;3570;43.080;25.628;2023-07-31T12:22:48;-20399.34;;;32.73;47.80
7058;BME280;3570;43.080;25.628;2023-07-31T12:25:33;-20386.00;;;32.26;49.91
7058;BME280;3570;43.080;25.628;2023-07-31T12:28:22;-20406.34;;;32.98;48.17
7058;BME280;3570;43.080;25.628;2023-07-31T12:31:08;-20462.97;;;34.97;42.19
7058;BME280;3570;43.080;25.628;2023-07-31T12:33:53;-20406.19;;;32.97;46.92
7058;BME280;3570;43.080;25.628;2023-07-31T12:36:37;-20370.41;;;31.72;51.50
7058;BME280;3570;43.080;25.628;2023-07-31T12:39:23;-20400.19;;;32.76;48.46
7058;BME280;3570;43.080;25.628;2023-07-31T12:42:07;-20400.06;;;32.76;49.65
7058;BME280;3570;43.080;25.628;2023-07-31T12:44:51;-20392.75;;;32.50;49.22
7058;BME280;3570;43.080;25.628;2023-07-31T12:47:35;-20416.66;;;33.34;48.96
7058;BME280;3570;43.080;25.628;2023-07-31T12:50:19;-20424.38;;;33.61;47.45
7058;BME280;3570;43.080;25.628;2023-07-31T12:53:04;-20436.81;;;34.05;46.07
7058;BME280;3570;43.080;25.628;2023-07-31T12:55:48;-20358.63;;;31.30;53.67
7058;BME280;3570;43.080;25.628;2023-07-31T12:58:33;-20306.81;;;29.49;62.93
7058;BME280;3570;43.080;25.628;2023-07-31T13:01:16;-20310.28;;;29.61;63.07
7058;BME280;3570;43.080;25.628;2023-07-31T13:04:00;-20352.63;;;31.09;58.93
7058;BME280;3570;43.080;25.628;2023-07-31T13:06:44;-20352.75;;;31.10;56.13
7058;BME280;3570;43.080;25.628;2023-07-31T13:09:29;-20375.41;;;31.89;55.03
7058;BME280;3570;43.080;25.628;2023-07-31T13:12:13;-20417.38;;;33.37;49.91
7058;BME280;3570;43.080;25.628;2023-07-31T13:14:57;-20365.94;;;31.56;52.95
7058;BME280;3570;43.080;25.628;2023-07-31T13:17:41;-20387.16;;;32.30;51.23
7058;BME280;3570;43.080;25.628;2023-07-31T13:20:25;-20426.09;;;33.67;47.38
7058;BME280;3570;43.080;25.628;2023-07-31T13:23:10;-20373.25;;;31.82;50.98
7058;BME280;3570;43.080;25.628;2023-07-31T13:25:54;-20365.09;;;31.53;54.14
7058;BME280;3570;43.080;25.628;2023-07-31T13:28:38;-20415.22;;;33.29;48.52
7058;BME280;3570;43.080;25.628;2023-07-31T13:31:22;-20402.91;;;32.86;50.90
7058;BME280;3570;43.080;25.628;2023-07-31T13:34:07;-20438.38;;;34.10;48.46
7058;BME280;3570;43.080;25.628;2023-07-31T13:36:54;-20471.09;;;35.26;43.68
7058;BME280;3570;43.080;25.628;2023-07-31T13:39:38;-20404.78;;;32.92;50.12
7058;BME280;3570;43.080;25.628;2023-07-31T13:42:22;-20390.59;;;32.42;51.86
7058;BME280;3570;43.080;25.628;2023-07-31T13:45:07;-20393.31;;;32.52;52.18
7058;BME280;3570;43.080;25.628;2023-07-31T13:47:51;-20394.31;;;32.56;52.29
7058;BME280;3570;43.080;25.628;2023-07-31T13:50:35;-20402.34;;;32.84;50.55
7058;BME280;3570;43.080;25.628;2023-07-31T13:53:19;-20414.50;;;33.26;50.46
7058;BME280;3570;43.080;25.628;2023-07-31T13:56:03;-20419.78;;;33.45;47.56
7058;BME280;3570;43.080;25.628;2023-07-31T13:58:47;-20471.09;;;35.26;44.30
7058;BME280;3570;43.080;25.628;2023-07-31T14:01:31;-20466.97;;;35.11;43.92
7058;BME280;3570;43.080;25.628;2023-07-31T14:04:16;-20461.66;;;34.92;43.91
7058;BME280;3570;43.080;25.628;2023-07-31T14:07:01;-20428.38;;;33.75;46.08
7058;BME280;3570;43.080;25.628;2023-07-31T14:09:45;-20399.47;;;32.74;49.46
7058;BME280;3570;43.080;25.628;2023-07-31T14:12:29;-20406.34;;;32.98;49.52
7058;BME280;3570;43.080;25.628;2023-07-31T14:15:14;-20466.69;;;35.10;44.55
7058;BME280;3570;43.080;25.628;2023-07-31T14:17:58;-20520.44;;;37.00;40.06
7058;BME280;3570;43.080;25.628;2023-07-31T14:20:42;-20493.22;;;36.04;41.11
7058;BME280;3570;43.080;25.628;2023-07-31T14:23:26;-20429.53;;;33.79;47.22
7058;BME280;3570;43.080;25.628;2023-07-31T14:26:10;-20407.34;;;33.01;49.46
7058;BME280;3570;43.080;25.628;2023-07-31T14:28:54;-20408.34;;;33.05;49.84
7058;BME280;3570;43.080;25.628;2023-07-31T14:31:38;-20409.22;;;33.08;49.94
7058;BME280;3570;43.080;25.628;2023-07-31T14:34:22;-20409.06;;;33.07;50.15
7058;BME280;3570;43.080;25.628;2023-07-31T14:37:06;-20391.16;;;32.45;52.51
7058;BME280;3570;43.080;25.628;2023-07-31T14:39:50;-20371.41;;;31.75;54.40
7058;BME280;3570;43.080;25.628;2023-07-31T14:42:35;-20365.38;;;31.54;57.03
7058;BME280;3570;43.080;25.628;2023-07-31T14:45:19;-20333.69;;;30.43;60.35
7058;BME280;3570;43.080;25.628;2023-07-31T14:48:03;-20338.69;;;30.60;60.25
7058;BME280;3570;43.080;25.628;2023-07-31T14:50:47;-20324.78;;;30.12;61.81